createdAt,value
2017-06-20T00:01:25.221Z,15.33
2017-06-20T00:03:52.786Z,14.00
2017-06-20T00:06:21.105Z,16.20
2017-06-20T00:08:48.694Z,15.43
2017-06-20T00:11:16.262Z,13.07
2017-06-20T00:13:44.607Z,16.73
2017-06-20T00:16:12.190Z,16.00
2017-06-20T00:18:39.761Z,15.20
2017-06-20T00:21:07.362Z,18.20
2017-06-20T00:23:34.929Z,20.20
2017-06-20T00:26:02.487Z,14.67
2017-06-20T00:28:30.098Z,16.67
2017-06-20T00:30:57.654Z,18.77
2017-06-20T00:33:25.231Z,17.60
2017-06-20T00:35:52.810Z,18.30
2017-06-20T00:38:20.383Z,16.20
2017-06-20T00:40:47.978Z,14.13
2017-06-20T00:43:15.550Z,15.43
2017-06-20T00:45:43.159Z,17.63
2017-06-20T00:48:10.734Z,19.33
2017-06-20T00:50:38.317Z,13.80
2017-06-20T00:53:05.978Z,14.93
2017-06-20T00:55:33.566Z,15.87
2017-06-20T00:58:01.146Z,16.90
2017-06-20T01:00:29.485Z,17.30
2017-06-20T01:02:57.057Z,16.43
2017-06-20T01:05:24.658Z,16.40
2017-06-20T01:07:52.259Z,16.73
2017-06-20T01:10:19.809Z,17.27
2017-06-20T01:12:47.394Z,21.53
2017-06-20T01:15:15.002Z,18.27
2017-06-20T01:17:42.609Z,16.43
2017-06-20T01:20:10.179Z,16.00
2017-06-20T01:22:37.752Z,19.57
2017-06-20T01:25:05.310Z,20.07
2017-06-20T01:27:32.898Z,17.63
2017-06-20T01:30:01.265Z,17.73
2017-06-20T01:32:28.899Z,19.20
2017-06-20T01:34:56.478Z,16.27
2017-06-20T01:37:24.056Z,19.13
2017-06-20T01:39:51.648Z,23.07
2017-06-20T01:42:19.209Z,18.80
2017-06-20T01:44:46.778Z,24.70
2017-06-20T01:47:14.366Z,21.10
2017-06-20T01:49:41.925Z,21.13
2017-06-20T01:52:09.496Z,19.17
2017-06-20T01:54:37.086Z,17.70
2017-06-20T01:57:04.754Z,20.93
2017-06-20T01:59:32.345Z,18.43
2017-06-20T02:01:59.898Z,19.77
2017-06-20T02:04:27.502Z,18.90
2017-06-20T02:06:55.062Z,19.40
2017-06-20T02:09:22.621Z,20.80
2017-06-20T02:11:50.295Z,17.30
2017-06-20T02:14:17.875Z,18.03
2017-06-20T02:16:45.467Z,20.73
2017-06-20T02:19:13.054Z,16.03
2017-06-20T02:21:41.527Z,17.90
2017-06-20T02:24:09.093Z,17.63
2017-06-20T02:26:36.657Z,15.23
2017-06-20T02:29:04.241Z,16.53
2017-06-20T02:31:31.805Z,20.13
2017-06-20T02:34:00.165Z,21.80
2017-06-20T02:36:27.754Z,17.73
2017-06-20T02:38:55.313Z,17.83
2017-06-20T02:41:22.904Z,17.90
2017-06-20T02:43:50.494Z,18.37
2017-06-20T02:46:18.065Z,15.67
2017-06-20T02:48:45.685Z,18.40
2017-06-20T02:51:14.058Z,16.67
2017-06-20T02:53:42.397Z,18.03
2017-06-20T02:56:10.003Z,20.33
2017-06-20T02:58:37.567Z,16.60
2017-06-20T03:01:05.149Z,20.30
2017-06-20T03:03:32.764Z,17.73
2017-06-20T03:06:00.330Z,18.17
2017-06-20T03:08:27.887Z,16.17
2017-06-20T03:11:07.269Z,17.03
2017-06-20T03:13:34.841Z,15.37
2017-06-20T03:16:02.401Z,19.73
2017-06-20T03:18:30.025Z,18.30
2017-06-20T03:20:58.358Z,21.03
2017-06-20T03:23:25.930Z,20.20
2017-06-20T03:25:53.523Z,20.30
2017-06-20T03:28:21.853Z,18.17
2017-06-20T03:30:49.430Z,16.40
2017-06-20T03:33:17.019Z,18.50
2017-06-20T03:35:44.582Z,17.57
2017-06-20T03:38:12.158Z,18.80
2017-06-20T03:40:39.731Z,17.77
2017-06-20T03:43:07.326Z,18.10
2017-06-20T03:45:34.897Z,19.00
2017-06-20T03:48:02.483Z,19.50
2017-06-20T03:50:30.072Z,18.20
2017-06-20T03:52:57.632Z,19.27
2017-06-20T03:55:25.230Z,19.07
2017-06-20T03:57:52.848Z,17.83
2017-06-20T04:00:21.178Z,18.90
2017-06-20T04:02:48.757Z,17.23
2017-06-20T04:05:16.326Z,15.43
2017-06-20T04:07:43.953Z,15.53
2017-06-20T04:10:11.530Z,18.70
2017-06-20T04:12:39.121Z,18.37
2017-06-20T04:15:07.478Z,16.53
2017-06-20T04:17:35.120Z,17.50
2017-06-20T04:20:02.689Z,17.00
2017-06-20T04:22:30.293Z,17.90
2017-06-20T04:24:57.904Z,20.60
2017-06-20T04:27:25.511Z,15.20
2017-06-20T04:29:53.081Z,15.20
2017-06-20T04:32:21.507Z,18.20
2017-06-20T04:34:49.105Z,12.80
2017-06-20T04:37:17.447Z,14.20
2017-06-20T04:39:45.033Z,14.67
2017-06-20T04:42:12.593Z,13.17
2017-06-20T04:44:40.198Z,13.77
2017-06-20T04:47:07.769Z,14.27
2017-06-20T04:49:35.337Z,18.17
2017-06-20T04:52:02.934Z,15.30
2017-06-20T04:54:30.489Z,13.67
2017-06-20T04:56:58.098Z,15.67
2017-06-20T04:59:25.666Z,11.63
2017-06-20T05:01:53.241Z,11.30
2017-06-20T05:04:20.842Z,16.30
2017-06-20T05:06:48.491Z,14.90
2017-06-20T05:09:16.075Z,12.60
2017-06-20T05:11:43.646Z,15.43
2017-06-20T05:14:12.063Z,16.30
2017-06-20T05:16:39.663Z,11.30
2017-06-20T05:19:07.225Z,12.60
2017-06-20T05:21:34.818Z,11.83
2017-06-20T05:24:03.175Z,11.20
2017-06-20T05:26:30.742Z,11.10
2017-06-20T05:28:58.407Z,11.10
2017-06-20T05:31:25.973Z,12.63
2017-06-20T05:33:53.530Z,10.23
2017-06-20T05:36:21.122Z,11.70
2017-06-20T05:38:48.718Z,13.13
2017-06-20T05:41:16.302Z,16.40
2017-06-20T05:43:43.856Z,12.40
2017-06-20T05:46:11.446Z,10.23
2017-06-20T05:48:39.791Z,13.77
2017-06-20T05:51:07.349Z,12.37
2017-06-20T05:53:34.937Z,11.30
2017-06-20T05:56:03.326Z,10.63
2017-06-20T05:58:31.682Z,12.63
2017-06-20T06:00:59.269Z,12.97
2017-06-20T06:03:27.588Z,9.73
2017-06-20T06:05:55.162Z,17.43
2017-06-20T06:08:22.817Z,11.73
2017-06-20T06:10:50.380Z,12.03
2017-06-20T06:13:17.983Z,13.30
2017-06-20T06:15:45.584Z,12.00
2017-06-20T06:18:13.158Z,9.30
2017-06-20T06:20:40.758Z,10.67
2017-06-20T06:23:08.314Z,8.90
2017-06-20T06:25:35.926Z,8.37
2017-06-20T06:28:03.492Z,9.93
2017-06-20T06:30:31.093Z,9.13
2017-06-20T06:32:58.658Z,8.70
2017-06-20T06:35:26.259Z,11.80
2017-06-20T06:37:53.840Z,7.80
2017-06-20T06:40:21.443Z,15.90
2017-06-20T06:42:49.046Z,9.70
2017-06-20T06:45:16.720Z,13.20
2017-06-20T06:47:44.294Z,9.00
2017-06-20T06:50:11.885Z,14.20
2017-06-20T06:52:39.472Z,10.67
2017-06-20T06:55:07.058Z,13.40
2017-06-20T06:57:34.640Z,12.33
2017-06-20T07:00:02.223Z,14.13
2017-06-20T07:02:29.825Z,16.63
2017-06-20T07:04:58.154Z,12.10
2017-06-20T07:07:25.734Z,11.60
2017-06-20T07:09:53.320Z,11.10
2017-06-20T07:12:21.657Z,13.37
2017-06-20T07:14:49.206Z,11.70
2017-06-20T07:17:16.803Z,11.73
2017-06-20T07:19:44.365Z,11.33
2017-06-20T07:22:11.970Z,11.03
2017-06-20T07:24:39.543Z,11.90
2017-06-20T07:27:07.102Z,11.03
2017-06-20T07:29:34.694Z,12.60
2017-06-20T07:32:02.266Z,11.30
2017-06-20T07:34:29.866Z,15.33
2017-06-20T07:36:57.494Z,11.33
2017-06-20T07:39:25.076Z,11.40
2017-06-20T07:41:53.407Z,13.23
2017-06-20T07:44:21.002Z,12.90
2017-06-20T07:46:49.346Z,11.67
2017-06-20T07:49:16.926Z,13.23
2017-06-20T07:51:44.519Z,13.83
2017-06-20T07:54:12.885Z,13.50
2017-06-20T07:56:41.218Z,14.40
2017-06-20T07:59:08.809Z,13.03
2017-06-20T08:01:36.379Z,14.57
2017-06-20T08:04:03.987Z,11.70
2017-06-20T08:06:31.556Z,13.80
2017-06-20T08:08:59.118Z,13.20
2017-06-20T08:11:26.801Z,15.33
2017-06-20T08:13:54.368Z,13.60
2017-06-20T08:16:21.941Z,14.00
2017-06-20T08:18:49.534Z,14.70
2017-06-20T08:21:37.906Z,16.67
2017-06-20T08:24:05.477Z,15.80
2017-06-20T08:26:33.084Z,20.40
2017-06-20T08:29:01.427Z,18.80
2017-06-20T08:31:29.005Z,18.83
2017-06-20T08:33:56.606Z,21.83
2017-06-20T08:36:24.163Z,21.30
2017-06-20T08:38:51.736Z,21.17
2017-06-20T08:41:19.318Z,19.77
2017-06-20T08:43:46.878Z,28.37
2017-06-20T08:46:14.453Z,18.33
2017-06-20T08:48:42.125Z,20.67
2017-06-20T08:51:09.710Z,20.90
2017-06-20T08:53:37.325Z,19.60
2017-06-20T08:56:04.914Z,20.00
2017-06-20T08:58:32.515Z,20.03
2017-06-20T09:01:00.125Z,21.13
2017-06-20T09:03:27.687Z,19.43
2017-06-20T09:05:55.250Z,18.10
2017-06-20T09:08:22.826Z,18.10
2017-06-20T09:10:50.443Z,21.20
2017-06-20T09:13:18.015Z,19.03
2017-06-20T09:15:45.655Z,14.23
2017-06-20T09:18:13.286Z,23.20
2017-06-20T09:20:40.966Z,17.57
2017-06-20T09:23:09.353Z,19.07
2017-06-20T09:25:36.923Z,18.93
2017-06-20T09:28:04.500Z,17.40
2017-06-20T09:30:32.079Z,21.07
2017-06-20T09:32:59.639Z,20.30
2017-06-20T09:35:27.227Z,22.30
2017-06-20T09:37:54.990Z,20.13
2017-06-20T09:40:22.595Z,19.23
2017-06-20T09:42:50.192Z,22.70
2017-06-20T09:45:17.749Z,22.53
2017-06-20T09:47:45.322Z,24.20
2017-06-20T09:50:12.931Z,25.03
2017-06-20T09:52:41.251Z,22.77
2017-06-20T09:55:08.818Z,19.60
2017-06-20T09:57:36.466Z,21.00
2017-06-20T10:00:04.033Z,19.07
2017-06-20T10:02:31.634Z,21.30
2017-06-20T10:04:59.215Z,20.70
2017-06-20T10:07:27.636Z,25.53
2017-06-20T10:09:55.214Z,24.10
2017-06-20T10:12:22.799Z,21.67
2017-06-20T10:14:50.407Z,17.10
2017-06-20T10:17:17.979Z,20.07
2017-06-20T10:19:45.539Z,18.90
2017-06-20T10:22:13.128Z,19.20
2017-06-20T10:24:40.700Z,18.90
2017-06-20T10:27:08.291Z,18.20
2017-06-20T10:29:35.923Z,16.33
2017-06-20T10:32:03.518Z,17.60
2017-06-20T10:34:31.090Z,17.33
2017-06-20T10:36:58.680Z,17.93
2017-06-20T10:39:26.250Z,19.17
2017-06-20T10:41:53.862Z,21.20
2017-06-20T10:44:21.466Z,16.33
2017-06-20T10:46:49.030Z,15.60
2017-06-20T10:49:16.621Z,18.50
2017-06-20T10:51:44.238Z,16.97
2017-06-20T10:54:11.834Z,22.67
2017-06-20T10:56:39.401Z,24.70
2017-06-20T10:59:07.758Z,21.83
2017-06-20T11:01:35.362Z,23.20
2017-06-20T11:04:02.944Z,18.53
2017-06-20T11:06:30.522Z,23.20
2017-06-20T11:08:58.098Z,18.27
2017-06-20T11:11:25.682Z,19.77
2017-06-20T11:13:53.284Z,21.97
2017-06-20T11:16:20.886Z,19.57
2017-06-20T11:18:48.468Z,17.93
2017-06-20T11:21:16.084Z,24.30
2017-06-20T11:23:43.675Z,18.90
2017-06-20T11:26:11.255Z,17.40
2017-06-20T11:28:38.863Z,16.00
2017-06-20T11:31:06.438Z,17.87
2017-06-20T11:33:34.018Z,14.77
2017-06-20T11:36:01.598Z,15.60
2017-06-20T11:38:29.961Z,16.37
2017-06-20T11:40:57.554Z,19.07
2017-06-20T11:43:25.177Z,17.43
2017-06-20T11:45:52.750Z,16.13
2017-06-20T11:48:20.367Z,14.83
2017-06-20T11:50:47.973Z,12.03
2017-06-20T11:53:15.534Z,12.83
2017-06-20T11:55:43.138Z,14.70
2017-06-20T11:58:10.723Z,11.83
2017-06-20T12:00:38.431Z,10.63
2017-06-20T12:03:05.999Z,11.73
2017-06-20T12:05:33.599Z,11.47
2017-06-20T12:08:01.187Z,13.00
2017-06-20T12:10:28.775Z,9.37
2017-06-20T12:12:56.357Z,10.50
2017-06-20T12:15:24.692Z,12.13
2017-06-20T12:17:52.350Z,10.87
2017-06-20T12:20:19.968Z,13.60
2017-06-20T12:22:47.527Z,11.07
2017-06-20T12:25:15.091Z,10.30
2017-06-20T12:27:42.674Z,14.03
2017-06-20T12:30:10.250Z,11.73
2017-06-20T12:32:37.824Z,11.60
2017-06-20T12:35:05.422Z,11.90
2017-06-20T12:37:33.764Z,12.20
2017-06-20T12:40:01.362Z,10.57
2017-06-20T12:42:29.699Z,12.50
2017-06-20T12:44:57.249Z,12.57
2017-06-20T12:47:24.852Z,10.00
2017-06-20T12:49:52.439Z,11.80
2017-06-20T12:52:20.055Z,10.37
2017-06-20T12:54:47.611Z,11.10
2017-06-20T12:57:15.199Z,12.10
2017-06-20T12:59:42.755Z,10.70
2017-06-20T13:02:10.335Z,9.70
2017-06-20T13:04:37.888Z,9.60
2017-06-20T13:07:05.463Z,10.47
2017-06-20T13:09:33.079Z,13.23
2017-06-20T13:12:00.653Z,12.50
2017-06-20T13:14:28.219Z,10.50
2017-06-20T13:16:55.811Z,8.93
2017-06-20T13:19:23.490Z,9.77
2017-06-20T13:21:51.054Z,9.60
2017-06-20T13:24:18.646Z,9.47
2017-06-20T13:26:46.207Z,9.87
2017-06-20T13:29:13.790Z,10.10
2017-06-20T13:31:41.366Z,9.20
2017-06-20T13:34:08.942Z,9.53
2017-06-20T13:36:36.577Z,9.83
2017-06-20T13:39:04.161Z,9.47
2017-06-20T13:41:32.480Z,10.23
2017-06-20T13:44:00.058Z,9.73
2017-06-20T13:46:27.651Z,11.40
2017-06-20T13:48:55.215Z,11.57
2017-06-20T13:51:23.543Z,10.53
2017-06-20T13:53:51.150Z,9.27
2017-06-20T13:56:19.533Z,15.07
2017-06-20T13:58:47.099Z,8.43
2017-06-20T14:01:14.685Z,13.77
2017-06-20T14:03:42.258Z,9.07
2017-06-20T14:06:09.825Z,10.57
2017-06-20T14:08:37.403Z,8.50
2017-06-20T14:11:04.958Z,8.77
2017-06-20T14:13:32.530Z,9.33
2017-06-20T14:16:00.104Z,9.93
2017-06-20T14:18:27.666Z,10.00
2017-06-20T14:20:55.254Z,12.33
2017-06-20T14:23:22.818Z,9.90
2017-06-20T14:25:50.400Z,9.87
2017-06-20T14:28:17.976Z,9.97
2017-06-20T14:30:45.603Z,9.90
2017-06-20T14:33:13.292Z,13.43
2017-06-20T14:35:40.847Z,9.63
2017-06-20T14:38:08.438Z,12.37
2017-06-20T14:40:36.024Z,11.87
2017-06-20T14:43:04.359Z,11.27
2017-06-20T14:45:31.933Z,12.33
2017-06-20T14:47:59.502Z,9.03
2017-06-20T14:50:27.105Z,10.20
2017-06-20T14:52:54.691Z,9.63
2017-06-20T14:55:22.250Z,10.20
2017-06-20T14:57:49.861Z,10.83
2017-06-20T15:00:17.420Z,11.90
2017-06-20T15:02:44.980Z,12.00
2017-06-20T15:05:12.594Z,14.50
2017-06-20T15:07:40.206Z,15.60
2017-06-20T15:10:07.766Z,13.60
2017-06-20T15:12:35.381Z,14.87
2017-06-20T15:15:02.976Z,15.13
2017-06-20T15:17:30.578Z,13.07
2017-06-20T15:19:58.954Z,14.63
2017-06-20T15:22:27.280Z,14.30
2017-06-20T15:24:54.950Z,12.20
2017-06-20T15:27:22.551Z,13.20
2017-06-20T15:29:50.882Z,13.50
2017-06-20T15:32:18.484Z,16.03
2017-06-20T15:34:46.983Z,13.77
2017-06-20T15:37:14.550Z,13.40
2017-06-20T15:39:42.133Z,13.27
2017-06-20T15:42:09.703Z,24.70
2017-06-20T15:44:37.282Z,15.80
2017-06-20T15:47:04.906Z,16.43
2017-06-20T15:49:32.542Z,14.30
2017-06-20T15:52:00.923Z,13.87
2017-06-20T15:54:29.286Z,17.33
2017-06-20T15:56:56.889Z,11.70
2017-06-20T15:59:24.573Z,14.13
2017-06-20T16:01:52.160Z,11.87
2017-06-20T16:04:19.745Z,15.17
2017-06-20T16:06:47.343Z,12.90
2017-06-20T16:09:14.934Z,13.40
2017-06-20T16:11:42.530Z,11.90
2017-06-20T16:14:10.952Z,13.27
2017-06-20T16:16:38.517Z,12.97
2017-06-20T16:19:06.079Z,17.10
2017-06-20T16:21:33.678Z,14.20
2017-06-20T16:24:01.285Z,11.77
2017-06-20T16:26:28.858Z,11.87
2017-06-20T16:28:56.450Z,12.63
2017-06-20T16:31:24.015Z,14.20
2017-06-20T16:33:51.609Z,12.33
2017-06-20T16:36:19.201Z,13.90
2017-06-20T16:38:46.908Z,11.00
2017-06-20T16:41:14.495Z,13.17
2017-06-20T16:43:42.219Z,13.13
2017-06-20T16:46:09.799Z,12.67
2017-06-20T16:48:37.393Z,10.30
2017-06-20T16:51:04.956Z,11.03
2017-06-20T16:53:32.544Z,11.90
2017-06-20T16:56:00.146Z,12.67
2017-06-20T16:58:27.721Z,12.00
2017-06-20T17:00:55.315Z,14.77
2017-06-20T17:03:22.900Z,9.30
2017-06-20T17:05:50.527Z,9.10
2017-06-20T17:08:18.077Z,12.90
2017-06-20T17:10:45.628Z,11.67
2017-06-20T17:13:13.963Z,16.60
2017-06-20T17:15:41.526Z,8.93
2017-06-20T17:18:09.113Z,10.20
2017-06-20T17:20:36.721Z,9.60
2017-06-20T17:23:04.283Z,8.30
2017-06-20T17:25:31.839Z,11.27
2017-06-20T17:27:59.418Z,10.63
2017-06-20T17:30:26.982Z,7.80
2017-06-20T17:32:54.571Z,8.53
2017-06-20T17:35:22.158Z,9.57
2017-06-20T17:37:50.503Z,7.37
2017-06-20T17:40:18.188Z,7.23
2017-06-20T17:42:45.816Z,9.67
2017-06-20T17:45:13.396Z,8.17
2017-06-20T17:47:41.029Z,11.20
2017-06-20T17:50:08.618Z,11.20
2017-06-20T17:52:36.187Z,7.57
2017-06-20T17:55:03.783Z,7.17
2017-06-20T17:57:31.359Z,10.83
2017-06-20T17:59:58.986Z,8.20
2017-06-20T18:02:27.331Z,8.13
2017-06-20T18:04:54.911Z,7.60
2017-06-20T18:07:22.507Z,10.43
2017-06-20T18:09:50.097Z,9.60
2017-06-20T18:12:17.674Z,9.17
2017-06-20T18:14:45.251Z,8.07
2017-06-20T18:17:12.842Z,8.57
2017-06-20T18:19:40.456Z,9.13
2017-06-20T18:22:08.033Z,7.83
2017-06-20T18:24:35.631Z,9.00
2017-06-20T18:27:03.214Z,9.80
2017-06-20T18:29:30.770Z,10.90
2017-06-20T18:31:58.399Z,7.87
2017-06-20T18:34:26.009Z,8.20
2017-06-20T18:36:53.602Z,6.70
2017-06-20T18:39:21.176Z,7.80
2017-06-20T18:41:48.802Z,6.93
2017-06-20T18:44:16.366Z,7.93
2017-06-20T18:46:43.964Z,7.93
2017-06-20T18:49:11.577Z,6.87
2017-06-20T18:51:39.167Z,6.60
2017-06-20T18:54:06.771Z,9.73
2017-06-20T18:56:34.341Z,9.33
2017-06-20T18:59:01.986Z,6.17
2017-06-20T19:01:29.524Z,8.33
2017-06-20T19:03:57.089Z,8.03
2017-06-20T19:06:24.747Z,7.57
2017-06-20T19:08:52.322Z,8.97
2017-06-20T19:11:19.887Z,6.40
2017-06-20T19:13:48.246Z,5.80
2017-06-20T19:16:15.846Z,4.97
2017-06-20T19:18:43.410Z,5.57
2017-06-20T19:21:10.974Z,6.47
2017-06-20T19:23:38.577Z,9.80
2017-06-20T19:26:06.179Z,6.60
2017-06-20T19:28:33.742Z,6.60
2017-06-20T19:31:02.139Z,10.33
2017-06-20T19:33:29.702Z,4.40
2017-06-20T19:35:57.251Z,6.20
2017-06-20T19:38:24.922Z,4.83
2017-06-20T19:40:52.534Z,8.37
2017-06-20T19:43:20.129Z,5.37
2017-06-20T19:45:47.687Z,9.03
2017-06-20T19:48:16.051Z,6.23
2017-06-20T19:50:43.609Z,8.53
2017-06-20T19:53:11.210Z,7.30
2017-06-20T19:55:38.824Z,8.60
2017-06-20T19:58:06.428Z,7.47
2017-06-20T20:00:34.076Z,5.17
2017-06-20T20:03:01.938Z,4.43
2017-06-20T20:05:30.265Z,9.80
2017-06-20T20:07:57.979Z,5.97
2017-06-20T20:10:25.570Z,8.87
2017-06-20T20:12:53.148Z,6.80
2017-06-20T20:15:20.727Z,9.83
2017-06-20T20:17:48.319Z,5.70
2017-06-20T20:20:15.862Z,5.07
2017-06-20T20:22:43.451Z,6.90
2017-06-20T20:25:11.050Z,8.33
2017-06-20T20:27:38.710Z,7.13
2017-06-20T20:30:06.371Z,7.43
2017-06-20T20:32:34.078Z,8.50
2017-06-20T20:35:01.650Z,5.30
2017-06-20T20:37:29.266Z,6.57
2017-06-20T20:39:56.851Z,7.60
2017-06-20T20:42:24.449Z,3.80
2017-06-20T20:44:52.057Z,5.10
2017-06-20T20:47:19.596Z,7.53
2017-06-20T20:49:47.171Z,10.03
2017-06-20T20:52:14.774Z,6.87
2017-06-20T20:54:42.336Z,5.37
2017-06-20T20:57:09.891Z,7.87
2017-06-20T20:59:37.507Z,6.07
2017-06-20T21:02:05.085Z,5.17
2017-06-20T21:04:32.714Z,5.40
2017-06-20T21:07:00.283Z,6.77
2017-06-20T21:09:27.910Z,4.30
2017-06-20T21:11:55.486Z,4.23
2017-06-20T21:14:23.831Z,6.63
2017-06-20T21:16:51.416Z,8.10
2017-06-20T21:19:18.989Z,5.57
2017-06-20T21:21:46.594Z,6.63
2017-06-20T21:24:14.194Z,5.93
2017-06-20T21:26:41.781Z,5.67
2017-06-20T21:29:09.346Z,7.30
2017-06-20T21:31:36.935Z,8.37
2017-06-20T21:34:04.546Z,9.37
2017-06-20T21:36:32.869Z,6.63
2017-06-20T21:39:00.541Z,6.63
2017-06-20T21:41:28.102Z,6.60
2017-06-20T21:43:55.683Z,7.10
2017-06-20T21:46:23.345Z,10.23
2017-06-20T21:48:50.902Z,6.17
2017-06-20T21:51:18.481Z,4.50
2017-06-20T21:53:46.060Z,4.90
2017-06-20T21:56:13.638Z,4.17
2017-06-20T21:58:41.216Z,7.20
2017-06-20T22:01:08.819Z,7.33
2017-06-20T22:03:36.402Z,8.40
2017-06-20T22:06:03.986Z,6.47
2017-06-20T22:08:31.654Z,12.23
2017-06-20T22:10:59.225Z,8.00
2017-06-20T22:13:26.800Z,6.93
2017-06-20T22:15:54.381Z,7.43
2017-06-20T22:18:21.998Z,11.57
2017-06-20T22:20:49.555Z,5.53
2017-06-20T22:23:17.110Z,7.97
2017-06-20T22:25:44.710Z,5.77
2017-06-20T22:28:12.378Z,8.87
2017-06-20T22:30:40.057Z,8.73
2017-06-20T22:33:07.614Z,8.90
2017-06-20T22:35:35.181Z,4.67
2017-06-20T22:38:02.761Z,4.57
2017-06-20T22:40:31.082Z,4.57
2017-06-20T22:42:58.674Z,4.20
2017-06-20T22:45:26.234Z,6.33
2017-06-20T22:47:53.798Z,8.23
2017-06-20T22:50:21.409Z,3.73
2017-06-20T22:52:48.968Z,6.77
2017-06-20T22:55:16.622Z,7.80
2017-06-20T22:57:44.210Z,5.13
2017-06-20T23:00:11.790Z,9.30
2017-06-20T23:02:39.340Z,4.27
2017-06-20T23:05:06.925Z,8.83
2017-06-20T23:07:34.504Z,6.03
2017-06-20T23:10:02.071Z,6.73
2017-06-20T23:12:30.392Z,7.67
2017-06-20T23:14:57.981Z,6.70
2017-06-20T23:17:25.617Z,19.73
2017-06-20T23:19:53.195Z,4.33
2017-06-20T23:22:20.794Z,4.10
2017-06-20T23:24:49.141Z,7.73
2017-06-20T23:27:16.742Z,5.80
2017-06-20T23:29:45.078Z,5.73
2017-06-20T23:32:12.615Z,5.60
2017-06-20T23:34:40.242Z,4.77
2017-06-20T23:37:08.584Z,4.10
2017-06-20T23:39:36.151Z,3.97
2017-06-20T23:42:03.734Z,5.67
2017-06-20T23:44:32.053Z,6.30
2017-06-20T23:46:59.606Z,6.00
2017-06-20T23:49:27.182Z,3.67
2017-06-20T23:51:54.750Z,5.80
2017-06-20T23:54:22.317Z,5.07
2017-06-20T23:56:49.882Z,3.90
2017-06-20T23:59:17.458Z,4.23
